createdAt,value
2018-07-11T00:00:21.731Z,18.50
2018-07-11T00:01:23.987Z,18.50
2018-07-11T00:02:26.223Z,18.50
2018-07-11T00:03:39.329Z,18.60
2018-07-11T00:04:41.605Z,18.60
2018-07-11T00:05:43.860Z,18.60
2018-07-11T00:06:46.067Z,18.50
2018-07-11T00:07:48.433Z,18.50
2018-07-11T00:08:50.764Z,18.50
2018-07-11T00:09:53.049Z,18.50
2018-07-11T00:10:55.263Z,18.50
2018-07-11T00:11:57.479Z,18.50
2018-07-11T00:13:07.554Z,18.40
2018-07-11T00:14:09.810Z,18.50
2018-07-11T00:15:12.055Z,18.40
2018-07-11T00:16:15.162Z,18.50
2018-07-11T00:17:17.438Z,18.50
2018-07-11T00:18:19.717Z,18.60
2018-07-11T00:19:22.022Z,18.60
2018-07-11T00:20:24.336Z,18.60
2018-07-11T00:21:26.603Z,18.50
2018-07-11T00:22:28.915Z,18.50
2018-07-11T00:23:31.743Z,18.50
2018-07-11T00:24:34.019Z,18.50
2018-07-11T00:25:36.281Z,18.50
2018-07-11T00:26:38.510Z,18.40
2018-07-11T00:27:40.784Z,18.50
2018-07-11T00:29:45.287Z,18.40
2018-07-11T00:30:47.707Z,18.40
2018-07-11T00:31:50.032Z,18.40
2018-07-11T00:32:52.387Z,18.40
2018-07-11T00:33:55.696Z,18.40
2018-07-11T00:34:57.978Z,18.40
2018-07-11T00:36:00.271Z,18.50
2018-07-11T00:37:02.557Z,18.50
2018-07-11T00:38:04.804Z,18.50
2018-07-11T00:39:07.050Z,18.50
2018-07-11T00:40:09.326Z,18.50
2018-07-11T00:41:11.610Z,18.50
2018-07-11T00:42:13.906Z,18.60
2018-07-11T00:43:16.160Z,18.50
2018-07-11T00:44:18.482Z,18.50
2018-07-11T00:45:20.741Z,18.50
2018-07-11T00:46:23.031Z,18.50
2018-07-11T00:47:25.262Z,18.50
2018-07-11T00:48:27.506Z,18.50
2018-07-11T00:49:29.769Z,18.40
2018-07-11T00:50:32.243Z,18.40
2018-07-11T00:51:35.041Z,18.40
2018-07-11T00:52:37.290Z,18.40
2018-07-11T00:53:39.552Z,18.40
2018-07-11T00:54:41.968Z,18.40
2018-07-11T00:55:45.214Z,18.40
2018-07-11T00:57:49.786Z,18.40
2018-07-11T00:58:59.105Z,18.40
2018-07-11T01:00:01.428Z,18.40
2018-07-11T01:01:16.269Z,18.30
2018-07-11T01:02:18.539Z,18.30
2018-07-11T01:03:20.803Z,18.30
2018-07-11T01:04:23.091Z,18.30
2018-07-11T01:05:25.410Z,18.30
2018-07-11T01:06:27.697Z,18.30
2018-07-11T01:07:29.995Z,18.30
2018-07-11T01:08:34.394Z,18.30
2018-07-11T01:09:39.918Z,18.30
2018-07-11T01:10:42.209Z,18.30
2018-07-11T01:11:44.939Z,18.30
2018-07-11T01:12:47.231Z,18.30
2018-07-11T01:13:49.538Z,18.30
2018-07-11T01:14:51.823Z,18.20
2018-07-11T01:15:54.105Z,18.20
2018-07-11T01:16:56.373Z,18.20
2018-07-11T01:18:04.221Z,18.20
2018-07-11T01:19:10.501Z,18.20
2018-07-11T01:20:13.129Z,18.20
2018-07-11T01:21:15.431Z,18.10
2018-07-11T01:22:17.645Z,18.10
2018-07-11T01:23:19.859Z,18.10
2018-07-11T01:24:22.107Z,18.10
2018-07-11T01:25:24.318Z,18.10
2018-07-11T01:26:28.018Z,18.10
2018-07-11T01:27:30.286Z,18.10
2018-07-11T01:28:32.514Z,18.00
2018-07-11T01:30:37.136Z,18.00
2018-07-11T01:31:39.342Z,18.00
2018-07-11T01:32:41.569Z,18.00
2018-07-11T01:33:43.801Z,18.00
2018-07-11T01:34:46.013Z,18.00
2018-07-11T01:35:48.268Z,18.00
2018-07-11T01:36:50.493Z,18.00
2018-07-11T01:38:55.226Z,18.10
2018-07-11T01:40:59.705Z,18.10
2018-07-11T01:42:01.958Z,18.10
2018-07-11T01:43:04.210Z,18.10
2018-07-11T01:44:06.428Z,18.10
2018-07-11T01:45:08.674Z,18.00
2018-07-11T01:46:10.903Z,18.10
2018-07-11T01:47:13.125Z,18.10
2018-07-11T01:48:15.387Z,18.10
2018-07-11T01:49:17.667Z,18.10
2018-07-11T01:50:19.936Z,18.20
2018-07-11T01:51:32.325Z,18.10
2018-07-11T01:52:46.067Z,18.10
2018-07-11T01:53:48.309Z,18.20
2018-07-11T01:54:50.520Z,18.20
2018-07-11T01:55:52.743Z,18.20
2018-07-11T01:56:55.036Z,18.20
2018-07-11T01:57:58.898Z,18.20
2018-07-11T01:59:01.153Z,18.30
2018-07-11T02:00:03.398Z,18.30
2018-07-11T02:01:05.919Z,18.30
2018-07-11T02:02:08.221Z,18.30
2018-07-11T02:03:10.537Z,18.20
2018-07-11T02:04:12.782Z,18.30
2018-07-11T02:05:15.491Z,18.20
2018-07-11T02:06:17.730Z,18.30
2018-07-11T02:07:19.989Z,18.20
2018-07-11T02:08:22.666Z,18.30
2018-07-11T02:09:24.975Z,18.30
2018-07-11T02:10:27.241Z,18.30
2018-07-11T02:11:29.486Z,18.30
2018-07-11T02:12:31.755Z,18.30
2018-07-11T02:13:34.033Z,18.30
2018-07-11T02:14:36.563Z,18.30
2018-07-11T02:15:38.809Z,18.20
2018-07-11T02:16:41.098Z,18.20
2018-07-11T02:17:43.376Z,18.20
2018-07-11T02:18:45.666Z,18.20
2018-07-11T02:19:47.953Z,18.20
2018-07-11T02:20:51.075Z,18.20
2018-07-11T02:21:53.327Z,18.20
2018-07-11T02:22:55.579Z,18.20
2018-07-11T02:24:00.374Z,18.20
2018-07-11T02:25:03.165Z,18.20
2018-07-11T02:26:05.468Z,18.10
2018-07-11T02:27:07.730Z,18.10
2018-07-11T02:28:10.271Z,18.20
2018-07-11T02:29:12.549Z,18.10
2018-07-11T02:30:14.820Z,18.10
2018-07-11T02:31:17.052Z,18.20
2018-07-11T02:32:19.306Z,18.10
2018-07-11T02:33:21.600Z,18.10
2018-07-11T02:34:29.489Z,18.10
2018-07-11T02:35:31.730Z,18.00
2018-07-11T02:36:33.988Z,18.00
2018-07-11T02:37:36.262Z,18.00
2018-07-11T02:38:38.518Z,18.00
2018-07-11T02:39:40.782Z,18.00
2018-07-11T02:40:43.009Z,18.00
2018-07-11T02:41:45.225Z,18.00
2018-07-11T02:43:49.714Z,17.90
2018-07-11T02:44:52.002Z,18.00
2018-07-11T02:48:03.734Z,18.00
2018-07-11T02:49:06.004Z,18.00
2018-07-11T02:50:08.222Z,18.10
2018-07-11T02:51:10.523Z,18.10
2018-07-11T02:52:12.754Z,18.10
2018-07-11T02:53:18.799Z,18.10
2018-07-11T02:54:21.154Z,18.10
2018-07-11T02:55:23.398Z,18.20
2018-07-11T02:56:25.649Z,18.20
2018-07-11T02:57:27.881Z,18.30
2018-07-11T02:58:30.131Z,18.30
2018-07-11T02:59:32.342Z,18.30
2018-07-11T03:00:34.544Z,18.40
2018-07-11T03:01:36.787Z,18.30
2018-07-11T03:02:39.028Z,18.30
2018-07-11T03:03:41.250Z,18.40
2018-07-11T03:04:43.500Z,18.40
2018-07-11T03:05:45.743Z,18.40
2018-07-11T03:06:47.988Z,18.40
2018-07-11T03:07:50.288Z,18.30
2018-07-11T03:08:52.547Z,18.30
2018-07-11T03:09:54.767Z,18.30
2018-07-11T03:10:57.015Z,18.40
2018-07-11T03:11:59.374Z,18.30
2018-07-11T03:13:01.584Z,18.30
2018-07-11T03:14:03.918Z,18.30
2018-07-11T03:15:06.154Z,18.30
2018-07-11T03:16:08.415Z,18.30
2018-07-11T03:17:10.651Z,18.40
2018-07-11T03:18:12.877Z,18.40
2018-07-11T03:19:15.123Z,18.40
2018-07-11T03:20:17.345Z,18.50
2018-07-11T03:21:19.660Z,18.40
2018-07-11T03:22:21.873Z,18.50
2018-07-11T03:23:24.524Z,18.40
2018-07-11T03:24:26.758Z,18.30
2018-07-11T03:25:29.145Z,18.30
2018-07-11T03:26:31.411Z,18.20
2018-07-11T03:28:35.902Z,18.20
2018-07-11T03:29:38.204Z,18.20
2018-07-11T03:30:40.507Z,18.20
2018-07-11T03:31:42.878Z,18.20
2018-07-11T03:32:45.116Z,18.20
2018-07-11T03:33:47.338Z,18.20
2018-07-11T03:35:52.039Z,18.20
2018-07-11T03:36:54.577Z,18.20
2018-07-11T03:37:56.858Z,18.10
2018-07-11T03:38:59.398Z,18.20
2018-07-11T03:40:01.697Z,18.20
2018-07-11T03:41:03.924Z,18.20
2018-07-11T03:42:06.178Z,18.30
2018-07-11T03:43:08.515Z,18.30
2018-07-11T03:44:10.768Z,18.30
2018-07-11T03:45:13.059Z,18.30
2018-07-11T03:46:15.335Z,18.30
2018-07-11T03:47:17.617Z,18.30
2018-07-11T03:48:19.831Z,18.30
2018-07-11T03:49:22.070Z,18.30
2018-07-11T03:50:24.338Z,18.40
2018-07-11T03:51:26.761Z,18.30
2018-07-11T03:52:29.002Z,18.30
2018-07-11T03:53:31.235Z,18.30
2018-07-11T03:55:35.712Z,18.20
2018-07-11T03:56:37.920Z,18.20
2018-07-11T03:57:40.589Z,18.20
2018-07-11T03:58:42.848Z,18.20
2018-07-11T03:59:45.109Z,18.20
2018-07-11T04:00:47.368Z,18.20
2018-07-11T04:01:49.614Z,18.20
2018-07-11T04:02:52.015Z,18.20
2018-07-11T04:03:54.259Z,18.20
2018-07-11T04:04:56.681Z,18.20
2018-07-11T04:05:58.730Z,18.10
2018-07-11T04:09:12.327Z,18.10
2018-07-11T04:10:14.607Z,18.00
2018-07-11T04:11:16.858Z,18.10
2018-07-11T04:12:19.111Z,18.10
2018-07-11T04:13:21.330Z,18.10
2018-07-11T04:14:23.539Z,18.00
2018-07-11T04:15:25.787Z,18.00
2018-07-11T04:16:28.012Z,18.10
2018-07-11T04:17:30.266Z,18.00
2018-07-11T04:18:32.567Z,18.20
2018-07-11T04:19:34.795Z,18.00
2018-07-11T04:20:37.071Z,18.10
2018-07-11T04:21:39.302Z,18.10
2018-07-11T04:22:41.566Z,18.10
2018-07-11T04:23:43.843Z,18.20
2018-07-11T04:24:55.115Z,18.20
2018-07-11T04:25:57.396Z,18.00
2018-07-11T04:26:59.676Z,18.00
2018-07-11T04:28:01.948Z,18.00
2018-07-11T04:29:04.247Z,18.00
2018-07-11T04:30:06.506Z,18.00
2018-07-11T04:31:08.772Z,18.00
2018-07-11T04:32:11.063Z,18.00
2018-07-11T04:33:13.336Z,17.90
2018-07-11T04:34:15.608Z,17.90
2018-07-11T04:35:17.864Z,17.90
2018-07-11T04:36:20.263Z,18.00
2018-07-11T04:37:22.507Z,17.90
2018-07-11T04:38:24.818Z,18.00
2018-07-11T04:39:27.047Z,18.00
2018-07-11T04:40:29.306Z,18.00
2018-07-11T04:41:31.519Z,18.00
2018-07-11T04:42:33.872Z,18.00
2018-07-11T04:43:36.061Z,18.00
2018-07-11T04:44:38.310Z,18.00
2018-07-11T04:45:40.538Z,17.90
2018-07-11T04:46:42.789Z,17.90
2018-07-11T04:47:45.079Z,17.90
2018-07-11T04:48:47.390Z,17.90
2018-07-11T04:49:49.739Z,17.90
2018-07-11T04:50:52.062Z,17.90
2018-07-11T04:51:54.355Z,17.90
2018-07-11T04:52:59.209Z,17.90
2018-07-11T04:54:01.513Z,17.90
2018-07-11T04:56:06.125Z,18.00
2018-07-11T04:57:08.451Z,18.00
2018-07-11T04:58:10.689Z,17.90
2018-07-11T04:59:13.022Z,17.90
2018-07-11T05:01:17.605Z,17.90
2018-07-11T05:02:19.842Z,18.00
2018-07-11T05:03:22.250Z,18.00
2018-07-11T05:04:24.502Z,18.00
2018-07-11T05:05:26.771Z,18.00
2018-07-11T05:06:29.025Z,18.00
2018-07-11T05:07:31.382Z,18.00
2018-07-11T05:08:33.630Z,18.00
2018-07-11T05:09:35.883Z,18.00
2018-07-11T05:10:38.147Z,17.90
2018-07-11T05:11:40.374Z,18.00
2018-07-11T05:12:42.589Z,18.00
2018-07-11T05:13:44.867Z,18.00
2018-07-11T05:14:47.093Z,18.10
2018-07-11T05:15:49.351Z,18.10
2018-07-11T05:16:51.632Z,18.10
2018-07-11T05:18:56.115Z,18.10
2018-07-11T05:19:58.378Z,18.10
2018-07-11T05:21:00.606Z,18.00
2018-07-11T05:22:02.890Z,18.10
2018-07-11T05:23:05.138Z,18.00
2018-07-11T05:24:07.455Z,18.00
2018-07-11T05:25:09.743Z,18.00
2018-07-11T05:26:12.000Z,18.20
2018-07-11T05:27:14.275Z,18.10
2018-07-11T05:28:16.509Z,18.20
2018-07-11T05:29:18.713Z,18.20
2018-07-11T05:30:20.947Z,18.20
2018-07-11T05:31:23.177Z,18.20
2018-07-11T05:32:25.405Z,18.10
2018-07-11T05:33:27.619Z,18.20
2018-07-11T05:34:29.854Z,18.30
2018-07-11T05:35:32.101Z,18.30
2018-07-11T05:36:34.363Z,18.30
2018-07-11T05:38:38.842Z,18.40
2018-07-11T05:39:41.071Z,18.50
2018-07-11T05:40:43.278Z,18.40
2018-07-11T05:41:45.486Z,18.40
2018-07-11T05:42:47.771Z,18.40
2018-07-11T05:43:50.003Z,18.40
2018-07-11T05:44:52.202Z,18.40
2018-07-11T05:45:54.410Z,18.40
2018-07-11T05:48:04.606Z,18.30
2018-07-11T05:49:06.805Z,18.30
2018-07-11T05:50:09.046Z,18.30
2018-07-11T05:51:11.262Z,18.10
2018-07-11T05:52:13.529Z,18.10
2018-07-11T05:55:20.142Z,18.20
2018-07-11T05:56:23.378Z,18.10
2018-07-11T05:57:25.639Z,18.10
2018-07-11T05:58:27.881Z,18.10
2018-07-11T05:59:30.386Z,18.20
2018-07-11T06:00:32.620Z,18.10
2018-07-11T06:01:34.861Z,18.10
2018-07-11T06:02:37.090Z,18.10
2018-07-11T06:03:39.341Z,18.10
2018-07-11T06:04:41.565Z,18.20
2018-07-11T06:05:43.811Z,18.20
2018-07-11T06:06:46.030Z,18.20
2018-07-11T06:07:48.260Z,18.20
2018-07-11T06:08:50.528Z,18.20
2018-07-11T06:10:55.013Z,18.20
2018-07-11T06:11:57.234Z,18.10
2018-07-11T06:12:59.481Z,18.10
2018-07-11T06:14:01.753Z,18.10
2018-07-11T06:15:03.994Z,18.10
2018-07-11T06:16:06.559Z,18.10
2018-07-11T06:17:08.810Z,18.10
2018-07-11T06:18:11.043Z,18.20
2018-07-11T06:19:13.270Z,18.20
2018-07-11T06:20:15.570Z,18.20
2018-07-11T06:21:18.131Z,18.20
2018-07-11T06:23:22.623Z,18.30
2018-07-11T06:24:24.883Z,18.30
2018-07-11T06:26:29.372Z,18.40
2018-07-11T06:27:31.594Z,18.40
2018-07-11T06:28:33.872Z,18.50
2018-07-11T06:29:36.112Z,18.50
2018-07-11T06:30:38.325Z,18.50
2018-07-11T06:31:40.535Z,18.50
2018-07-11T06:32:42.782Z,18.50
2018-07-11T06:33:45.026Z,18.50
2018-07-11T06:34:47.218Z,18.60
2018-07-11T06:35:49.446Z,18.60
2018-07-11T06:36:51.810Z,18.60
2018-07-11T06:37:54.080Z,18.70
2018-07-11T06:39:58.507Z,18.60
2018-07-11T06:41:00.738Z,18.70
2018-07-11T06:42:02.976Z,18.70
2018-07-11T06:43:05.251Z,18.70
2018-07-11T06:45:10.501Z,18.80
2018-07-11T06:46:12.738Z,18.90
2018-07-11T06:47:15.556Z,18.90
2018-07-11T06:48:17.774Z,19.00
2018-07-11T06:49:20.031Z,19.10
2018-07-11T06:51:24.502Z,19.20
2018-07-11T06:52:26.721Z,19.20
2018-07-11T06:53:28.942Z,19.30
2018-07-11T06:54:31.165Z,19.30
2018-07-11T06:55:33.383Z,19.40
2018-07-11T06:56:35.756Z,19.40
2018-07-11T06:57:38.043Z,19.40
2018-07-11T06:59:42.530Z,19.50
2018-07-11T07:00:44.785Z,19.40
2018-07-11T07:02:49.251Z,19.50
2018-07-11T07:03:51.509Z,19.60
2018-07-11T07:04:53.744Z,19.60
2018-07-11T07:05:56.034Z,19.60
2018-07-11T07:06:58.298Z,19.60
2018-07-11T07:08:00.584Z,19.60
2018-07-11T07:09:04.207Z,19.50
2018-07-11T07:10:06.566Z,19.50
2018-07-11T07:11:08.817Z,19.50
2018-07-11T07:12:11.029Z,19.50
2018-07-11T07:13:13.215Z,19.50
2018-07-11T07:14:15.452Z,19.50
2018-07-11T07:15:17.718Z,19.50
2018-07-11T07:16:19.939Z,19.50
2018-07-11T07:18:24.346Z,19.50
2018-07-11T07:20:28.743Z,19.50
2018-07-11T07:21:30.923Z,19.60
2018-07-11T07:22:33.505Z,19.60
2018-07-11T07:23:35.669Z,19.60
2018-07-11T07:24:37.877Z,19.60
2018-07-11T07:25:40.088Z,19.70
2018-07-11T07:26:42.294Z,19.70
2018-07-11T07:27:44.512Z,19.80
2018-07-11T07:28:46.731Z,19.80
2018-07-11T07:30:51.190Z,19.90
2018-07-11T07:31:53.377Z,19.90
2018-07-11T07:32:55.569Z,19.90
2018-07-11T07:35:00.003Z,19.80
2018-07-11T07:36:02.221Z,19.90
2018-07-11T07:37:04.462Z,19.70
2018-07-11T07:38:06.720Z,19.90
2018-07-11T07:39:08.914Z,19.80
2018-07-11T07:40:11.131Z,19.90
2018-07-11T07:41:13.322Z,19.90
2018-07-11T07:42:15.474Z,19.90
2018-07-11T07:43:17.684Z,20.00
2018-07-11T07:44:19.938Z,20.00
2018-07-11T07:45:22.201Z,20.10
2018-07-11T07:46:24.410Z,20.00
2018-07-11T07:47:32.711Z,19.90
2018-07-11T07:48:34.939Z,19.90
2018-07-11T07:49:37.162Z,19.90
2018-07-11T07:50:39.354Z,19.90
2018-07-11T07:51:41.559Z,19.90
2018-07-11T07:52:43.850Z,19.90
2018-07-11T07:54:48.318Z,19.80
2018-07-11T07:55:50.554Z,19.80
2018-07-11T07:56:52.802Z,19.70
2018-07-11T07:57:55.019Z,19.80
2018-07-11T07:59:59.521Z,19.70
2018-07-11T08:01:01.729Z,19.60
2018-07-11T08:02:03.990Z,19.60
2018-07-11T08:03:06.208Z,19.60
2018-07-11T08:04:09.638Z,19.60
2018-07-11T08:05:11.834Z,19.70
2018-07-11T08:06:14.054Z,19.70
2018-07-11T08:07:16.291Z,19.70
2018-07-11T08:09:20.733Z,19.60
2018-07-11T08:10:22.938Z,19.60
2018-07-11T08:11:25.129Z,19.60
2018-07-11T08:13:29.549Z,19.70
2018-07-11T08:15:33.970Z,19.80
2018-07-11T08:16:36.189Z,19.90
2018-07-11T08:17:38.418Z,20.00
2018-07-11T08:18:40.647Z,19.90
2018-07-11T08:19:42.852Z,20.20
2018-07-11T08:20:45.048Z,20.20
2018-07-11T08:21:47.252Z,20.30
2018-07-11T08:23:37.815Z,20.30
2018-07-11T08:24:51.862Z,20.30
2018-07-11T08:26:06.223Z,20.30
2018-07-11T08:27:24.605Z,20.20
2018-07-11T08:28:38.699Z,20.10
2018-07-11T08:29:50.741Z,20.10
2018-07-11T08:32:41.990Z,20.00
2018-07-11T08:34:02.295Z,20.00
2018-07-11T08:39:24.294Z,20.00
2018-07-11T08:42:51.583Z,20.20
2018-07-11T08:53:53.202Z,20.20
2018-07-11T08:55:02.083Z,20.10
2018-07-11T08:56:18.119Z,19.50
2018-07-11T08:59:37.157Z,19.50
2018-07-11T09:00:58.990Z,19.50
2018-07-11T09:02:12.634Z,19.50
2018-07-11T09:05:37.918Z,19.50
2018-07-11T09:08:50.875Z,19.60
2018-07-11T09:11:07.584Z,19.70
2018-07-11T09:12:27.721Z,19.70
2018-07-11T09:13:45.019Z,19.60
2018-07-11T09:15:58.027Z,19.60
2018-07-11T09:18:59.661Z,19.70
2018-07-11T09:20:10.318Z,19.70
2018-07-11T09:23:25.526Z,19.70
2018-07-11T09:24:36.209Z,19.70
2018-07-11T09:25:38.434Z,19.80
2018-07-11T09:26:40.669Z,20.00
2018-07-11T09:27:42.862Z,20.00
2018-07-11T09:28:45.186Z,20.10
2018-07-11T09:29:47.738Z,20.20
2018-07-11T09:30:49.930Z,20.30
2018-07-11T09:31:52.120Z,20.40
2018-07-11T09:32:54.366Z,20.40
2018-07-11T09:33:56.609Z,20.40
2018-07-11T09:34:58.785Z,20.40
2018-07-11T09:36:00.968Z,20.40
2018-07-11T09:37:03.195Z,20.40
2018-07-11T09:38:05.429Z,20.50
2018-07-11T09:39:07.662Z,20.40
2018-07-11T09:40:09.882Z,20.40
2018-07-11T09:41:12.097Z,20.40
2018-07-11T09:42:14.326Z,20.50
2018-07-11T09:43:16.538Z,20.50
2018-07-11T09:44:18.745Z,20.60
2018-07-11T09:45:20.946Z,20.70
2018-07-11T09:46:23.218Z,20.70
2018-07-11T09:47:26.954Z,20.80
2018-07-11T09:48:29.492Z,20.80
2018-07-11T09:49:31.714Z,20.80
2018-07-11T09:50:33.973Z,20.80
2018-07-11T09:51:36.195Z,20.80
2018-07-11T09:52:38.389Z,20.80
2018-07-11T09:53:40.626Z,20.80
2018-07-11T09:54:42.855Z,20.90
2018-07-11T09:55:45.087Z,20.80
2018-07-11T09:56:47.763Z,20.90
2018-07-11T09:57:50.066Z,21.00
2018-07-11T09:58:52.225Z,20.90
2018-07-11T09:59:54.503Z,20.90
2018-07-11T10:01:02.578Z,21.00
2018-07-11T10:02:04.802Z,21.00
2018-07-11T10:03:07.065Z,21.10
2018-07-11T10:05:12.729Z,21.30
2018-07-11T10:06:14.898Z,21.40
2018-07-11T10:07:17.136Z,21.50
2018-07-11T10:08:19.397Z,21.60
2018-07-11T10:09:21.618Z,21.60
2018-07-11T10:10:23.883Z,21.50
2018-07-11T10:11:26.143Z,21.60
2018-07-11T10:12:28.427Z,21.60
2018-07-11T10:13:30.634Z,21.60
2018-07-11T10:14:32.849Z,21.60
2018-07-11T10:15:35.021Z,21.60
2018-07-11T10:16:37.218Z,21.40
2018-07-11T10:17:39.466Z,21.30
2018-07-11T10:18:52.681Z,21.40
2018-07-11T10:19:54.885Z,21.30
2018-07-11T10:20:57.093Z,21.20
2018-07-11T10:21:59.306Z,21.10
2018-07-11T10:23:01.555Z,21.00
2018-07-11T10:24:03.786Z,21.00
2018-07-11T10:25:06.599Z,20.90
2018-07-11T10:26:08.838Z,21.00
2018-07-11T10:27:11.122Z,21.00
2018-07-11T10:28:18.559Z,21.10
2018-07-11T10:29:20.761Z,21.20
2018-07-11T10:30:22.979Z,21.40
2018-07-11T10:31:26.251Z,21.30
2018-07-11T10:32:28.473Z,21.40
2018-07-11T10:33:30.716Z,21.40
2018-07-11T10:34:32.930Z,21.40
2018-07-11T10:35:35.134Z,21.40
2018-07-11T10:36:37.338Z,21.50
2018-07-11T10:37:39.511Z,21.50
2018-07-11T10:38:41.737Z,21.50
2018-07-11T10:39:43.968Z,21.60
2018-07-11T10:40:46.293Z,21.70
2018-07-11T10:41:48.562Z,21.70
2018-07-11T10:42:50.785Z,21.80
2018-07-11T10:43:52.959Z,21.80
2018-07-11T10:44:55.314Z,21.80
2018-07-11T10:45:57.486Z,21.70
2018-07-11T10:47:05.678Z,21.70
2018-07-11T10:48:07.914Z,21.60
2018-07-11T10:49:10.220Z,21.40
2018-07-11T10:50:12.427Z,21.30
2018-07-11T10:51:14.618Z,21.10
2018-07-11T10:52:16.823Z,21.00
2018-07-11T10:54:21.242Z,20.80
2018-07-11T10:56:25.714Z,20.80
2018-07-11T10:57:27.895Z,20.80
2018-07-11T10:58:30.157Z,20.70
2018-07-11T10:59:32.424Z,20.70
2018-07-11T11:00:37.748Z,20.60
2018-07-11T11:01:36.916Z,20.60
2018-07-11T11:03:41.321Z,20.60
2018-07-11T11:04:43.576Z,20.60
2018-07-11T11:05:45.712Z,20.50
2018-07-11T11:07:56.995Z,20.50
2018-07-11T11:08:59.151Z,20.50
2018-07-11T11:10:01.495Z,20.50
2018-07-11T11:11:03.774Z,20.60
2018-07-11T11:12:06.085Z,20.50
2018-07-11T11:13:08.260Z,20.50
2018-07-11T11:14:10.473Z,20.50
2018-07-11T11:15:12.685Z,20.50
2018-07-11T11:16:14.906Z,20.40
2018-07-11T11:17:17.116Z,20.40
2018-07-11T11:18:19.859Z,20.40
2018-07-11T11:19:22.056Z,20.50
2018-07-11T11:20:24.275Z,20.50
2018-07-11T11:21:26.499Z,20.50
2018-07-11T11:22:29.059Z,20.50
2018-07-11T11:23:31.246Z,20.40
2018-07-11T11:24:33.470Z,20.40
2018-07-11T11:25:35.762Z,20.40
2018-07-11T11:26:37.943Z,20.40
2018-07-11T11:27:40.145Z,20.40
2018-07-11T11:28:42.388Z,20.30
2018-07-11T11:29:44.613Z,20.20
2018-07-11T11:30:46.866Z,20.20
2018-07-11T11:31:49.175Z,20.10
2018-07-11T11:32:51.430Z,20.10
2018-07-11T11:33:53.706Z,20.10
2018-07-11T11:34:55.931Z,20.10
2018-07-11T11:35:58.163Z,20.10
2018-07-11T11:37:00.355Z,20.10
2018-07-11T11:38:02.610Z,20.20
2018-07-11T11:40:07.046Z,20.30
2018-07-11T11:41:09.278Z,20.40
2018-07-11T11:42:11.923Z,20.50
2018-07-11T11:43:13.801Z,20.60
2018-07-11T11:45:18.358Z,20.80
2018-07-11T11:46:20.583Z,20.90
2018-07-11T11:48:26.890Z,21.10
2018-07-11T11:49:29.563Z,21.20
2018-07-11T11:50:32.115Z,21.30
2018-07-11T11:51:34.363Z,21.40
2018-07-11T11:52:36.628Z,21.40
2018-07-11T11:53:38.874Z,21.30
2018-07-11T11:54:41.112Z,21.30
2018-07-11T11:55:43.377Z,21.40
2018-07-11T11:57:48.154Z,21.50
2018-07-11T11:58:50.584Z,21.40
2018-07-11T11:59:52.826Z,21.40
2018-07-11T12:00:55.067Z,21.30
2018-07-11T12:01:57.326Z,21.30
2018-07-11T12:02:59.562Z,21.30
2018-07-11T12:04:01.810Z,21.30
2018-07-11T12:05:04.055Z,21.30
2018-07-11T12:06:06.285Z,21.40
2018-07-11T12:07:08.577Z,21.40
2018-07-11T12:08:10.791Z,21.50
2018-07-11T12:09:13.068Z,21.60
2018-07-11T12:10:15.379Z,21.60
2018-07-11T12:11:17.627Z,21.60
2018-07-11T12:12:19.890Z,21.70
2018-07-11T12:13:22.135Z,21.70
2018-07-11T12:14:24.382Z,21.80
2018-07-11T12:15:26.602Z,21.80
2018-07-11T12:16:28.832Z,21.90
2018-07-11T12:17:31.102Z,22.00
2018-07-11T12:18:33.479Z,22.00
2018-07-11T12:19:35.706Z,22.10
2018-07-11T12:20:37.955Z,22.20
2018-07-11T12:21:40.219Z,22.20
2018-07-11T12:22:42.486Z,22.30
2018-07-11T12:23:44.783Z,22.30
2018-07-11T12:24:47.397Z,22.30
2018-07-11T12:25:58.346Z,22.30
2018-07-11T12:27:00.730Z,22.30
2018-07-11T12:28:02.950Z,22.20
2018-07-11T12:29:05.214Z,22.20
2018-07-11T12:30:07.454Z,22.20
2018-07-11T12:31:09.698Z,22.20
2018-07-11T12:32:11.982Z,22.20
2018-07-11T12:33:14.253Z,22.10
2018-07-11T12:34:16.508Z,22.10
2018-07-11T12:35:18.839Z,22.00
2018-07-11T12:36:21.115Z,21.90
2018-07-11T12:37:23.361Z,21.90
2018-07-11T12:38:26.018Z,21.90
2018-07-11T12:39:28.274Z,21.80
2018-07-11T12:40:30.518Z,21.80
2018-07-11T12:41:33.811Z,21.70
2018-07-11T12:42:36.880Z,21.70
2018-07-11T12:43:40.293Z,21.80
2018-07-11T12:44:43.047Z,21.80
2018-07-11T12:45:45.901Z,21.80
2018-07-11T12:46:48.195Z,21.70
2018-07-11T12:47:56.240Z,21.70
2018-07-11T12:50:02.704Z,21.60
2018-07-11T12:51:04.955Z,21.60
2018-07-11T12:52:07.231Z,21.60
2018-07-11T12:53:09.521Z,21.50
2018-07-11T12:55:14.045Z,21.30
2018-07-11T12:56:16.298Z,21.30
2018-07-11T12:57:18.581Z,21.40
2018-07-11T12:58:20.802Z,21.50
2018-07-11T13:00:26.082Z,21.50
2018-07-11T13:01:28.714Z,21.40
2018-07-11T13:02:31.933Z,21.30
2018-07-11T13:03:34.221Z,21.20
2018-07-11T13:04:36.474Z,21.20
2018-07-11T13:05:38.758Z,21.20
2018-07-11T13:06:41.026Z,21.30
2018-07-11T13:07:43.282Z,21.30
2018-07-11T13:08:45.547Z,21.30
2018-07-11T13:09:47.791Z,21.40
2018-07-11T13:10:51.254Z,21.40
2018-07-11T13:11:53.547Z,21.50
2018-07-11T13:12:55.814Z,21.50
2018-07-11T13:13:58.068Z,21.50
2018-07-11T13:15:00.326Z,21.50
2018-07-11T13:16:02.688Z,21.50
2018-07-11T13:17:04.855Z,21.50
2018-07-11T13:18:07.099Z,21.50
2018-07-11T13:19:09.349Z,21.50
2018-07-11T13:20:11.629Z,21.50
2018-07-11T13:21:14.011Z,21.50
2018-07-11T13:22:16.274Z,21.60
2018-07-11T13:23:18.526Z,21.50
2018-07-11T13:24:20.794Z,21.40
2018-07-11T13:25:23.086Z,21.40
2018-07-11T13:26:25.326Z,21.50
2018-07-11T13:27:27.558Z,21.50
2018-07-11T13:28:29.808Z,21.60
2018-07-11T13:29:32.084Z,21.50
2018-07-11T13:30:34.347Z,21.60
2018-07-11T13:31:36.578Z,21.60
2018-07-11T13:32:38.858Z,21.70
2018-07-11T13:33:41.392Z,21.60
2018-07-11T13:34:43.660Z,21.60
2018-07-11T13:35:45.922Z,21.60
2018-07-11T13:36:48.403Z,21.50
2018-07-11T13:37:50.714Z,21.50
2018-07-11T13:38:52.992Z,21.40
2018-07-11T13:39:55.272Z,21.40
2018-07-11T13:41:59.799Z,21.40
2018-07-11T13:43:02.059Z,21.30
2018-07-11T13:45:06.582Z,21.30
2018-07-11T13:46:08.842Z,21.30
2018-07-11T13:47:16.801Z,21.40
2018-07-11T13:48:19.045Z,21.40
2018-07-11T13:49:21.295Z,21.50
2018-07-11T13:50:23.574Z,21.50
2018-07-11T13:51:25.846Z,21.60
2018-07-11T13:53:37.207Z,21.80
2018-07-11T13:54:39.466Z,21.80
2018-07-11T13:55:41.798Z,21.80
2018-07-11T13:56:45.023Z,21.90
2018-07-11T13:57:47.304Z,21.90
2018-07-11T13:58:49.587Z,22.00
2018-07-11T13:59:51.847Z,22.00
2018-07-11T14:00:54.084Z,21.90
2018-07-11T14:01:56.339Z,21.80
2018-07-11T14:02:58.586Z,21.80
2018-07-11T14:04:01.334Z,21.80
2018-07-11T14:05:03.602Z,21.80
2018-07-11T14:06:05.871Z,21.90
2018-07-11T14:07:08.121Z,21.90
2018-07-11T14:08:10.385Z,22.00
2018-07-11T14:09:12.672Z,22.10
2018-07-11T14:10:14.936Z,22.10
2018-07-11T14:11:17.227Z,22.10
2018-07-11T14:12:19.478Z,22.00
2018-07-11T14:13:21.727Z,22.00
2018-07-11T14:14:23.997Z,21.80
2018-07-11T14:15:26.251Z,21.80
2018-07-11T14:16:28.585Z,21.70
2018-07-11T14:17:30.842Z,21.80
2018-07-11T14:18:33.126Z,21.70
2018-07-11T14:19:35.362Z,21.70
2018-07-11T14:20:37.592Z,21.70
2018-07-11T14:21:39.896Z,21.70
2018-07-11T14:23:44.410Z,22.00
2018-07-11T14:24:46.676Z,22.00
2018-07-11T14:26:52.173Z,22.10
2018-07-11T14:27:54.442Z,22.10
2018-07-11T14:28:56.816Z,22.10
2018-07-11T14:29:59.083Z,22.20
2018-07-11T14:31:02.996Z,22.20
2018-07-11T14:32:06.017Z,22.30
2018-07-11T14:33:09.070Z,22.30
2018-07-11T14:34:11.375Z,22.40
2018-07-11T14:35:14.253Z,22.50
2018-07-11T14:36:17.615Z,22.60
2018-07-11T14:37:20.232Z,22.60
2018-07-11T14:38:22.702Z,22.60
2018-07-11T14:39:24.972Z,22.70
2018-07-11T14:41:29.579Z,22.80
2018-07-11T14:42:31.862Z,22.90
2018-07-11T14:43:34.162Z,22.90
2018-07-11T14:44:36.446Z,22.70
2018-07-11T14:45:38.762Z,22.70
2018-07-11T14:46:41.047Z,22.70
2018-07-11T14:47:49.081Z,22.50
2018-07-11T14:48:51.568Z,22.40
2018-07-11T14:49:53.830Z,22.10
2018-07-11T14:50:56.135Z,22.20
2018-07-11T14:51:58.466Z,22.30
2018-07-11T14:53:00.754Z,22.20
2018-07-11T14:54:03.026Z,22.20
2018-07-11T14:55:05.781Z,22.20
2018-07-11T14:56:08.103Z,22.30
2018-07-11T14:57:10.370Z,22.20
2018-07-11T14:58:12.820Z,22.40